Time;durP1;ratioP1;P1;durP2;ratioP2;P2;SDS_P1;SDS_P2;PMS_P1;PMS_P2;Temp;Humidity;BMP_temperature;BMP_pressure;BME280_temperature;BME280_humidity;BME280_pressure;Samples;Min_cycle;Max_cycle;Signal;HPM_P1;HPM_P2
2021/01/09 00:00:20;;;;;;;19.70;8.87;;;;;;;;;;5060740;28;20184;-74
2021/01/09 00:02:46;;;;;;;18.30;9.73;;;;;;;;;;5067029;28;20645;-74
2021/01/09 00:05:12;;;;;;;16.20;9.20;;;;;;;;;;5055718;28;20249;-74
2021/01/09 00:07:38;;;;;;;13.70;8.57;;;;;;;;;;5085334;28;20555;-74
2021/01/09 00:10:06;;;;;;;13.77;7.90;;;;;;;;;;5068186;28;20279;-73
2021/01/09 00:12:35;;;;;;;18.70;8.70;;;;;;;;;;5080498;28;20636;-74
2021/01/09 00:15:01;;;;;;;18.67;9.07;;;;;;;;;;5063008;28;20275;-74
2021/01/09 00:17:26;;;;;;;16.37;9.50;;;;;;;;;;5077695;28;20756;-74
2021/01/09 00:19:52;;;;;;;15.70;9.20;;;;;;;;;;5084254;28;20663;-74
2021/01/09 00:22:18;;;;;;;14.53;8.60;;;;;;;;;;5075806;28;20203;-73
2021/01/09 00:24:43;;;;;;;19.50;10.53;;;;;;;;;;5086108;28;20180;-74
2021/01/09 00:27:12;;;;;;;20.47;10.80;;;;;;;;;;5077005;28;20237;-73
2021/01/09 00:29:40;;;;;;;17.33;9.63;;;;;;;;;;5083063;28;20279;-73
2021/01/09 00:32:05;;;;;;;19.10;9.97;;;;;;;;;;5073427;28;20202;-73
2021/01/09 00:34:31;;;;;;;19.13;10.10;;;;;;;;;;5085251;28;20180;-73
2021/01/09 00:36:56;;;;;;;19.50;9.83;;;;;;;;;;5077959;28;20334;-73
2021/01/09 00:39:22;;;;;;;19.50;9.23;;;;;;;;;;5082677;28;20181;-74
2021/01/09 00:41:47;;;;;;;24.80;11.00;;;;;;;;;;5080707;28;20753;-74
2021/01/09 00:44:12;;;;;;;22.90;10.40;;;;;;;;;;5082818;28;20184;-73
2021/01/09 00:46:38;;;;;;;22.13;9.77;;;;;;;;;;5084860;28;20599;-73
2021/01/09 00:49:03;;;;;;;17.07;9.53;;;;;;;;;;5078653;28;20215;-73
2021/01/09 00:51:28;;;;;;;25.27;10.33;;;;;;;;;;5086751;28;20534;-73
2021/01/09 00:53:54;;;;;;;21.20;10.13;;;;;;;;;;5079787;28;20188;-73
2021/01/09 00:56:19;;;;;;;19.07;10.43;;;;;;;;;;5087401;28;20187;-73
2021/01/09 00:58:44;;;;;;;21.53;9.73;;;;;;;;;;5078865;28;20208;-73
2021/01/09 01:01:10;;;;;;;21.37;10.13;;;;;;;;;;5086657;28;20233;-73
2021/01/09 01:03:38;;;;;;;18.63;9.70;;;;;;;;;;5059065;28;20187;-73
2021/01/09 01:06:04;;;;;;;19.73;10.40;;;;;;;;;;5071693;28;20725;-73
2021/01/09 01:08:29;;;;;;;18.00;9.83;;;;;;;;;;5059761;28;20232;-73
2021/01/09 01:10:55;;;;;;;20.70;10.07;;;;;;;;;;5086120;28;20257;-74
2021/01/09 01:13:21;;;;;;;22.83;10.47;;;;;;;;;;5087367;28;20618;-74
2021/01/09 01:15:47;;;;;;;19.47;10.40;;;;;;;;;;5055334;28;20590;-73
2021/01/09 01:18:13;;;;;;;20.07;10.10;;;;;;;;;;5088727;28;20196;-73
2021/01/09 01:20:38;;;;;;;20.07;9.50;;;;;;;;;;5075681;28;20525;-73
2021/01/09 01:23:03;;;;;;;17.57;9.90;;;;;;;;;;5085176;28;20211;-72
2021/01/09 01:25:29;;;;;;;22.30;9.47;;;;;;;;;;5076229;28;20199;-73
2021/01/09 01:27:54;;;;;;;18.47;9.17;;;;;;;;;;5086216;28;20184;-72
2021/01/09 01:30:20;;;;;;;16.77;8.93;;;;;;;;;;5076044;28;21254;-72
2021/01/09 01:32:45;;;;;;;18.27;9.00;;;;;;;;;;5069789;28;20287;-72
2021/01/09 01:35:10;;;;;;;17.07;8.70;;;;;;;;;;5060639;28;20204;-72
2021/01/09 01:37:36;;;;;;;18.27;8.87;;;;;;;;;;5085739;28;20259;-72
2021/01/09 01:40:05;;;;;;;16.97;8.83;;;;;;;;;;5061220;28;20200;-72
2021/01/09 01:42:31;;;;;;;15.57;8.80;;;;;;;;;;5069951;28;20279;-72
2021/01/09 01:44:56;;;;;;;17.07;10.03;;;;;;;;;;5064499;28;20271;-72
2021/01/09 01:47:22;;;;;;;19.50;10.33;;;;;;;;;;5081820;28;20241;-72
2021/01/09 01:49:48;;;;;;;21.10;9.77;;;;;;;;;;5085632;28;20188;-72
2021/01/09 01:52:14;;;;;;;16.33;9.23;;;;;;;;;;5079908;28;20191;-72
2021/01/09 01:54:41;;;;;;;16.77;9.10;;;;;;;;;;5068095;28;20194;-72
2021/01/09 01:57:09;;;;;;;18.60;10.20;;;;;;;;;;5080684;28;20212;-72
2021/01/09 01:59:35;;;;;;;23.03;10.30;;;;;;;;;;5084009;28;20191;-72
2021/01/09 02:02:04;;;;;;;20.77;10.10;;;;;;;;;;5079315;28;20271;-71
2021/01/09 02:04:29;;;;;;;18.30;10.03;;;;;;;;;;5069836;28;20537;-72
2021/01/09 02:06:58;;;;;;;18.77;10.83;;;;;;;;;;5078174;28;20203;-72
2021/01/09 02:09:27;;;;;;;19.70;10.63;;;;;;;;;;5085665;28;20195;-72
2021/01/09 02:12:02;;;;;;;23.03;11.40;;;;;;;;;;5079417;28;20275;-72
2021/01/09 02:14:48;;;;;;;22.13;11.43;;;;;;;;;;5085520;28;20179;-72
2021/01/09 02:17:16;;;;;;;20.77;10.37;;;;;;;;;;5066074;28;20204;-72
2021/01/09 02:19:42;;;;;;;22.43;11.80;;;;;;;;;;5086645;28;20182;-72
2021/01/09 02:22:13;;;;;;;20.33;10.77;;;;;;;;;;5075884;28;20262;-72
2021/01/09 02:24:38;;;;;;;20.33;10.70;;;;;;;;;;5067089;28;20199;-72
2021/01/09 02:27:07;;;;;;;22.30;11.00;;;;;;;;;;5069294;28;20245;-72
2021/01/09 02:29:36;;;;;;;20.30;11.07;;;;;;;;;;5084313;28;20310;-72
2021/01/09 02:32:08;;;;;;;21.00;11.60;;;;;;;;;;5087306;28;20621;-72
2021/01/09 02:34:40;;;;;;;20.43;10.70;;;;;;;;;;5076409;28;20207;-72
2021/01/09 02:37:06;;;;;;;19.90;10.30;;;;;;;;;;5084670;28;20224;-72
2021/01/09 02:39:31;;;;;;;20.00;11.00;;;;;;;;;;5073887;28;20581;-72
2021/01/09 02:41:57;;;;;;;16.63;9.77;;;;;;;;;;5088244;28;20595;-72
2021/01/09 02:44:23;;;;;;;19.20;11.07;;;;;;;;;;5081248;28;20191;-72
2021/01/09 02:46:49;;;;;;;20.00;11.00;;;;;;;;;;5088983;28;20194;-71
2021/01/09 02:49:14;;;;;;;18.83;10.77;;;;;;;;;;5080204;28;20188;-71
2021/01/09 02:51:39;;;;;;;17.90;10.60;;;;;;;;;;5087420;28;20538;-71
2021/01/09 02:54:05;;;;;;;16.73;10.60;;;;;;;;;;5079629;28;20556;-71
2021/01/09 02:56:30;;;;;;;21.67;10.73;;;;;;;;;;5088082;28;20192;-71
2021/01/09 02:58:55;;;;;;;19.47;10.40;;;;;;;;;;5080771;28;21496;-71
2021/01/09 03:01:26;;;;;;;20.30;10.67;;;;;;;;;;5088333;28;20275;-71
2021/01/09 03:03:51;;;;;;;19.57;10.60;;;;;;;;;;5090333;28;20257;-71
2021/01/09 03:06:17;;;;;;;21.50;10.50;;;;;;;;;;5079062;28;20726;-72
2021/01/09 03:08:42;;;;;;;24.13;10.67;;;;;;;;;;5090002;28;20702;-71
2021/01/09 03:11:07;;;;;;;19.20;10.90;;;;;;;;;;5077620;28;20245;-71
2021/01/09 03:13:33;;;;;;;20.57;10.70;;;;;;;;;;5072301;28;20180;-72
2021/01/09 03:15:59;;;;;;;22.10;11.37;;;;;;;;;;5062243;28;20191;-72
2021/01/09 03:18:25;;;;;;;18.10;10.17;;;;;;;;;;5089824;28;20228;-71
2021/01/09 03:20:50;;;;;;;19.60;10.40;;;;;;;;;;5079886;28;20244;-71
2021/01/09 03:23:15;;;;;;;18.57;10.87;;;;;;;;;;5087387;28;20195;-71
2021/01/09 03:25:41;;;;;;;18.90;10.43;;;;;;;;;;5077884;28;20498;-71
2021/01/09 03:28:06;;;;;;;23.00;11.33;;;;;;;;;;5090140;28;20690;-71
2021/01/09 03:30:31;;;;;;;20.57;11.43;;;;;;;;;;5076933;28;22371;-71
2021/01/09 03:32:56;;;;;;;21.37;12.37;;;;;;;;;;5090002;28;20265;-71
2021/01/09 03:35:22;;;;;;;25.90;12.97;;;;;;;;;;5089839;28;20184;-72
2021/01/09 03:37:48;;;;;;;22.20;12.73;;;;;;;;;;5080168;28;20571;-71
2021/01/09 03:40:13;;;;;;;22.00;12.53;;;;;;;;;;5072319;28;20195;-71
2021/01/09 03:42:38;;;;;;;24.77;13.07;;;;;;;;;;5081181;28;20191;-71
2021/01/09 03:45:04;;;;;;;25.80;12.73;;;;;;;;;;5070888;28;20192;-71
2021/01/09 03:47:30;;;;;;;26.53;13.80;;;;;;;;;;5063313;28;20218;-71
2021/01/09 03:49:55;;;;;;;31.03;13.63;;;;;;;;;;5087488;28;20191;-71
2021/01/09 03:52:20;;;;;;;25.83;12.87;;;;;;;;;;5071746;28;20200;-71
2021/01/09 03:54:45;;;;;;;26.47;13.53;;;;;;;;;;5085256;28;20183;-71
2021/01/09 03:57:11;;;;;;;21.93;13.50;;;;;;;;;;5081887;28;20203;-71
2021/01/09 03:59:36;;;;;;;21.37;13.07;;;;;;;;;;5086435;28;20184;-71
2021/01/09 04:02:01;;;;;;;22.43;13.27;;;;;;;;;;5080377;28;20765;-71
2021/01/09 04:04:27;;;;;;;23.97;13.23;;;;;;;;;;5084150;28;20188;-71
2021/01/09 04:06:52;;;;;;;21.10;13.40;;;;;;;;;;5086919;28;20752;-71
2021/01/09 04:09:17;;;;;;;25.33;12.77;;;;;;;;;;5076573;28;20201;-71
2021/01/09 04:11:43;;;;;;;22.07;12.83;;;;;;;;;;5088787;28;20655;-71
2021/01/09 04:14:08;;;;;;;22.87;12.50;;;;;;;;;;5077079;28;20303;-71
2021/01/09 04:16:37;;;;;;;26.23;13.53;;;;;;;;;;5089822;28;20268;-71
2021/01/09 04:19:03;;;;;;;23.23;12.50;;;;;;;;;;5077329;28;20622;-71
2021/01/09 04:21:28;;;;;;;24.60;12.97;;;;;;;;;;5087407;28;20180;-71
2021/01/09 04:23:54;;;;;;;25.57;13.03;;;;;;;;;;5077241;28;20190;-71
2021/01/09 04:26:19;;;;;;;25.30;13.47;;;;;;;;;;5087338;28;20263;-71
2021/01/09 04:28:44;;;;;;;24.00;13.07;;;;;;;;;;5077432;28;20183;-71
2021/01/09 04:31:13;;;;;;;26.30;13.07;;;;;;;;;;5089329;28;20172;-71
2021/01/09 04:33:39;;;;;;;23.40;13.90;;;;;;;;;;5078479;28;20686;-71
2021/01/09 04:36:04;;;;;;;26.33;13.97;;;;;;;;;;5069477;28;20176;-71
2021/01/09 04:38:30;;;;;;;26.63;13.90;;;;;;;;;;5084640;28;20222;-71
2021/01/09 04:40:57;;;;;;;24.70;13.63;;;;;;;;;;5080969;28;20555;-71
2021/01/09 04:43:23;;;;;;;22.23;12.70;;;;;;;;;;5083266;28;20188;-71
2021/01/09 04:45:48;;;;;;;24.30;12.67;;;;;;;;;;5077476;28;20207;-71
2021/01/09 04:48:14;;;;;;;23.77;12.30;;;;;;;;;;5083963;28;20246;-71
2021/01/09 04:50:40;;;;;;;26.13;12.77;;;;;;;;;;5060867;28;20245;-71
2021/01/09 04:53:07;;;;;;;25.63;12.97;;;;;;;;;;5083697;28;20195;-71
2021/01/09 04:55:35;;;;;;;27.73;12.63;;;;;;;;;;5079210;28;20186;-71
2021/01/09 04:58:03;;;;;;;27.10;13.53;;;;;;;;;;5084712;28;20638;-71
2021/01/09 05:00:28;;;;;;;26.77;13.10;;;;;;;;;;5079497;28;20728;-71
2021/01/09 05:02:54;;;;;;;28.33;14.30;;;;;;;;;;5085179;28;20188;-71
2021/01/09 05:05:20;;;;;;;39.23;15.73;;;;;;;;;;5079808;28;24190;-71
2021/01/09 05:07:45;;;;;;;31.03;15.47;;;;;;;;;;5081924;28;20238;-71
2021/01/09 05:10:11;;;;;;;29.80;14.70;;;;;;;;;;5088956;28;20195;-71
2021/01/09 05:12:40;;;;;;;32.13;15.93;;;;;;;;;;5078855;28;20281;-71
2021/01/09 05:15:06;;;;;;;30.73;14.57;;;;;;;;;;5081973;28;20329;-71
2021/01/09 05:17:35;;;;;;;30.13;15.10;;;;;;;;;;5075097;28;20208;-71
2021/01/09 05:20:03;;;;;;;32.00;14.77;;;;;;;;;;5069462;28;20207;-70
2021/01/09 05:22:29;;;;;;;27.10;14.30;;;;;;;;;;5077499;28;20188;-71
2021/01/09 05:24:55;;;;;;;30.23;14.93;;;;;;;;;;5087361;28;20744;-70
2021/01/09 05:27:21;;;;;;;35.27;15.73;;;;;;;;;;5060537;28;20184;-71
2021/01/09 05:29:51;;;;;;;33.80;15.97;;;;;;;;;;5087185;28;20192;-70
2021/01/09 05:32:17;;;;;;;27.63;14.67;;;;;;;;;;5076360;28;20188;-70
2021/01/09 05:34:47;;;;;;;35.60;16.63;;;;;;;;;;5085099;28;20191;-70
2021/01/09 05:37:23;;;;;;;33.47;16.67;;;;;;;;;;5075838;28;20231;-70
2021/01/09 05:39:54;;;;;;;37.30;17.13;;;;;;;;;;5067044;28;20192;-71
2021/01/09 05:42:22;;;;;;;30.90;15.53;;;;;;;;;;5077374;28;20207;-70
2021/01/09 05:44:50;;;;;;;33.50;15.67;;;;;;;;;;5085436;28;20214;-70
2021/01/09 05:47:17;;;;;;;32.43;16.30;;;;;;;;;;5044093;28;20660;-71
2021/01/09 05:49:44;;;;;;;31.37;15.67;;;;;;;;;;5085486;28;20184;-71
2021/01/09 05:52:11;;;;;;;32.03;15.23;;;;;;;;;;5086695;28;20278;-71
2021/01/09 05:54:37;;;;;;;29.63;14.50;;;;;;;;;;5077217;28;20191;-71
2021/01/09 05:57:06;;;;;;;27.77;14.40;;;;;;;;;;4380508;28;10000842;-70
2021/01/09 05:59:34;;;;;;;26.43;14.40;;;;;;;;;;5072922;28;20567;-70
2021/01/09 06:02:00;;;;;;;28.57;13.93;;;;;;;;;;5082155;28;20192;-70
2021/01/09 06:04:28;;;;;;;28.23;14.00;;;;;;;;;;5072991;28;20230;-71
2021/01/09 06:07:10;;;;;;;25.40;13.07;;;;;;;;;;5080592;28;20239;-70
2021/01/09 06:10:09;;;;;;;25.33;12.87;;;;;;;;;;5071637;28;20286;-71
2021/01/09 06:12:58;;;;;;;24.47;12.33;;;;;;;;;;5057536;28;20605;-70
2021/01/09 06:15:24;;;;;;;24.27;12.03;;;;;;;;;;5074099;28;20192;-71
2021/01/09 06:17:51;;;;;;;25.63;11.87;;;;;;;;;;5086817;28;20679;-71
2021/01/09 06:20:17;;;;;;;20.77;11.03;;;;;;;;;;5075636;28;20191;-71
2021/01/09 06:22:42;;;;;;;23.40;11.67;;;;;;;;;;5089444;28;20226;-71
2021/01/09 06:25:10;;;;;;;24.87;12.80;;;;;;;;;;5076108;28;20223;-71
2021/01/09 06:27:36;;;;;;;25.90;12.20;;;;;;;;;;5086972;28;20297;-71
2021/01/09 06:30:04;;;;;;;25.03;12.23;;;;;;;;;;5076822;28;20553;-71
2021/01/09 06:32:35;;;;;;;24.80;12.17;;;;;;;;;;5082059;28;20194;-71
2021/01/09 06:35:03;;;;;;;23.93;12.27;;;;;;;;;;5076379;28;20200;-71
2021/01/09 06:37:29;;;;;;;20.90;11.80;;;;;;;;;;5085578;28;20326;-71
2021/01/09 06:39:55;;;;;;;23.10;12.30;;;;;;;;;;5076620;28;20364;-71
2021/01/09 06:42:20;;;;;;;22.30;13.00;;;;;;;;;;5086855;28;20192;-71
2021/01/09 06:44:53;;;;;;;24.03;11.87;;;;;;;;;;5078491;28;20666;-71
2021/01/09 06:47:27;;;;;;;22.80;11.17;;;;;;;;;;5075820;28;20187;-71
2021/01/09 06:49:53;;;;;;;23.53;12.10;;;;;;;;;;5082600;28;20664;-71
2021/01/09 06:52:18;;;;;;;28.93;12.67;;;;;;;;;;5077231;28;20682;-71
2021/01/09 06:54:45;;;;;;;25.40;12.77;;;;;;;;;;5084855;28;20187;-71
2021/01/09 06:57:11;;;;;;;22.57;12.33;;;;;;;;;;5076621;28;20663;-71
2021/01/09 06:59:42;;;;;;;23.03;11.00;;;;;;;;;;5087175;28;20635;-69
2021/01/09 07:02:27;;;;;;;25.17;12.37;;;;;;;;;;5077245;28;20694;-71
2021/01/09 07:05:04;;;;;;;23.73;12.53;;;;;;;;;;5086000;28;20654;-72
2021/01/09 07:07:54;;;;;;;23.27;11.97;;;;;;;;;;5076498;28;20216;-70
2021/01/09 07:10:24;;;;;;;24.40;11.77;;;;;;;;;;5089977;28;20222;-70
2021/01/09 07:13:03;;;;;;;24.67;11.67;;;;;;;;;;5077828;28;20187;-70
2021/01/09 07:15:32;;;;;;;22.40;12.20;;;;;;;;;;5091175;28;20237;-70
2021/01/09 07:18:01;;;;;;;26.17;11.90;;;;;;;;;;5077046;28;20219;-70
2021/01/09 07:20:35;;;;;;;23.60;12.13;;;;;;;;;;5089321;28;20230;-70
2021/01/09 07:23:03;;;;;;;26.37;12.77;;;;;;;;;;5076033;28;20207;-70
2021/01/09 07:25:34;;;;;;;26.43;12.73;;;;;;;;;;5089730;28;20263;-70
2021/01/09 07:28:02;;;;;;;22.63;11.87;;;;;;;;;;5076382;28;20207;-70
2021/01/09 07:30:29;;;;;;;21.67;11.67;;;;;;;;;;5088601;28;20660;-70
2021/01/09 07:32:55;;;;;;;24.73;12.13;;;;;;;;;;5078882;28;20200;-70
2021/01/09 07:35:31;;;;;;;24.30;11.63;;;;;;;;;;5088235;28;20263;-71
2021/01/09 07:37:59;;;;;;;21.97;11.70;;;;;;;;;;5076630;28;20242;-71
2021/01/09 07:40:28;;;;;;;25.90;12.17;;;;;;;;;;4734739;28;10000586;-71
2021/01/09 07:42:53;;;;;;;23.93;11.73;;;;;;;;;;5064561;28;20181;-70
2021/01/09 07:45:21;;;;;;;23.97;11.60;;;;;;;;;;5084275;28;20192;-70
2021/01/09 07:47:48;;;;;;;25.30;11.37;;;;;;;;;;5082225;28;20180;-71
2021/01/09 07:50:16;;;;;;;24.40;10.17;;;;;;;;;;5076206;28;20551;-71
2021/01/09 07:52:42;;;;;;;21.87;9.93;;;;;;;;;;5079834;28;20189;-71
2021/01/09 07:55:10;;;;;;;18.83;8.43;;;;;;;;;;5077868;28;20539;-71
2021/01/09 07:57:38;;;;;;;20.00;8.93;;;;;;;;;;5080736;28;20549;-71
2021/01/09 08:00:07;;;;;;;22.20;8.47;;;;;;;;;;5074337;28;20703;-71
2021/01/09 08:02:44;;;;;;;17.80;8.30;;;;;;;;;;5083875;28;20215;-71
2021/01/09 08:05:19;;;;;;;22.13;9.07;;;;;;;;;;5075719;28;20658;-71
2021/01/09 08:07:51;;;;;;;21.47;8.70;;;;;;;;;;5065340;28;20908;-71
2021/01/09 08:10:38;;;;;;;20.00;8.80;;;;;;;;;;5072967;28;20207;-71
2021/01/09 08:13:05;;;;;;;20.53;8.10;;;;;;;;;;5067060;28;20897;-72
2021/01/09 08:15:32;;;;;;;16.70;8.33;;;;;;;;;;5074438;28;20753;-72
2021/01/09 08:18:04;;;;;;;16.97;8.23;;;;;;;;;;5083679;28;20207;-72
2021/01/09 08:20:30;;;;;;;18.40;7.50;;;;;;;;;;5073547;28;20638;-72
2021/01/09 08:23:00;;;;;;;17.33;8.27;;;;;;;;;;5083464;28;20187;-71
2021/01/09 08:25:30;;;;;;;14.00;7.93;;;;;;;;;;5070805;28;20191;-71
2021/01/09 08:27:57;;;;;;;20.33;8.37;;;;;;;;;;5081855;28;20712;-72
2021/01/09 08:30:25;;;;;;;18.33;8.60;;;;;;;;;;5074023;28;20195;-72
2021/01/09 08:33:01;;;;;;;22.03;9.10;;;;;;;;;;5083768;28;20188;-72
2021/01/09 08:35:26;;;;;;;15.83;8.77;;;;;;;;;;5076847;28;20191;-72
2021/01/09 08:37:53;;;;;;;20.13;9.77;;;;;;;;;;5070731;28;20262;-71
2021/01/09 08:40:19;;;;;;;22.73;10.53;;;;;;;;;;5075990;28;20568;-71
2021/01/09 08:43:01;;;;;;;27.03;11.50;;;;;;;;;;5070500;28;20546;-73
2021/01/09 08:45:40;;;;;;;20.40;10.00;;;;;;;;;;5063472;28;20584;-71
2021/01/09 08:48:14;;;;;;;22.00;11.30;;;;;;;;;;5070394;28;20176;-72
2021/01/09 08:50:45;;;;;;;24.33;12.60;;;;;;;;;;5077444;28;20184;-72
2021/01/09 08:53:11;;;;;;;23.80;12.03;;;;;;;;;;5051811;28;20190;-72
2021/01/09 08:55:37;;;;;;;22.30;12.17;;;;;;;;;;5077641;28;20180;-73
2021/01/09 08:58:06;;;;;;;24.07;12.90;;;;;;;;;;5069841;28;20200;-72
2021/01/09 09:00:32;;;;;;;22.03;11.57;;;;;;;;;;5079889;28;20180;-73
2021/01/09 09:02:59;;;;;;;24.23;11.17;;;;;;;;;;5057338;28;20769;-73
2021/01/09 09:05:27;;;;;;;22.40;11.30;;;;;;;;;;5078541;28;20546;-72
2021/01/09 09:07:56;;;;;;;23.27;10.63;;;;;;;;;;5069356;28;20192;-72
2021/01/09 09:10:23;;;;;;;17.77;10.63;;;;;;;;;;5079930;28;20236;-72
2021/01/09 09:12:49;;;;;;;18.03;9.43;;;;;;;;;;5070184;28;20196;-71
2021/01/09 09:15:26;;;;;;;17.50;8.47;;;;;;;;;;5081053;28;20191;-72
2021/01/09 09:17:52;;;;;;;16.17;7.77;;;;;;;;;;5071836;28;20543;-72
2021/01/09 09:20:17;;;;;;;18.97;7.70;;;;;;;;;;5063799;28;20177;-71
2021/01/09 09:22:42;;;;;;;16.53;7.83;;;;;;;;;;5056719;28;20195;-73
2021/01/09 09:25:08;;;;;;;15.77;7.77;;;;;;;;;;5073176;28;20206;-71
2021/01/09 09:27:34;;;;;;;14.90;7.50;;;;;;;;;;5078177;28;20578;-72
2021/01/09 09:30:18;;;;;;;19.60;7.43;;;;;;;;;;5054508;28;20188;-73
2021/01/09 09:32:46;;;;;;;17.77;7.57;;;;;;;;;;5064582;28;21240;-72
2021/01/09 09:35:25;;;;;;;14.47;7.10;;;;;;;;;;5072324;28;20270;-72
2021/01/09 09:37:52;;;;;;;14.53;7.37;;;;;;;;;;5080422;28;20264;-72
2021/01/09 09:40:26;;;;;;;14.80;7.07;;;;;;;;;;5071323;28;20188;-72
2021/01/09 09:42:52;;;;;;;12.50;6.80;;;;;;;;;;5081086;28;20184;-72
2021/01/09 09:45:18;;;;;;;12.70;7.03;;;;;;;;;;5074708;28;20709;-73
2021/01/09 09:47:49;;;;;;;14.10;7.17;;;;;;;;;;5079731;28;20200;-73
2021/01/09 09:50:19;;;;;;;20.00;7.90;;;;;;;;;;5056721;28;20192;-74
2021/01/09 09:52:56;;;;;;;14.20;7.17;;;;;;;;;;5086345;28;20244;-73
2021/01/09 09:55:22;;;;;;;14.00;7.83;;;;;;;;;;5083107;28;20192;-74
2021/01/09 09:58:06;;;;;;;11.80;7.37;;;;;;;;;;5091019;28;20216;-73
2021/01/09 10:00:32;;;;;;;14.03;7.43;;;;;;;;;;5081205;28;20182;-73
2021/01/09 10:02:57;;;;;;;14.17;6.97;;;;;;;;;;5092730;28;20580;-73
2021/01/09 10:05:23;;;;;;;8.63;5.87;;;;;;;;;;5085027;28;20701;-73
2021/01/09 10:07:49;;;;;;;17.73;7.20;;;;;;;;;;5091450;28;20179;-75
2021/01/09 10:10:15;;;;;;;16.53;7.33;;;;;;;;;;5091322;28;20781;-73
2021/01/09 10:12:40;;;;;;;13.63;6.53;;;;;;;;;;5065008;28;20283;-74
2021/01/09 10:15:08;;;;;;;19.20;8.23;;;;;;;;;;5094212;28;20271;-74
2021/01/09 10:17:33;;;;;;;13.87;6.97;;;;;;;;;;5079868;28;20208;-74
2021/01/09 10:19:58;;;;;;;11.77;7.13;;;;;;;;;;5069890;28;20282;-74
2021/01/09 10:22:23;;;;;;;12.27;6.57;;;;;;;;;;5074603;28;20187;-74
2021/01/09 10:24:49;;;;;;;16.03;6.63;;;;;;;;;;5093092;28;20666;-75
2021/01/09 10:27:14;;;;;;;11.77;6.30;;;;;;;;;;5082930;28;20226;-72
2021/01/09 10:29:39;;;;;;;16.33;6.00;;;;;;;;;;5089971;28;20180;-72
2021/01/09 10:32:05;;;;;;;11.80;6.30;;;;;;;;;;5082566;28;20198;-74
2021/01/09 10:34:30;;;;;;;15.07;6.17;;;;;;;;;;5090380;28;20642;-74
2021/01/09 10:36:55;;;;;;;14.10;5.30;;;;;;;;;;5079043;28;20273;-73
2021/01/09 10:39:21;;;;;;;12.70;4.70;;;;;;;;;;5092637;28;20191;-73
2021/01/09 10:41:49;;;;;;;9.00;4.27;;;;;;;;;;5088499;28;20341;-74
2021/01/09 10:44:14;;;;;;;8.93;4.57;;;;;;;;;;5065119;28;20188;-73
2021/01/09 10:46:41;;;;;;;9.27;4.50;;;;;;;;;;5088576;28;20179;-74
2021/01/09 10:49:07;;;;;;;9.23;5.03;;;;;;;;;;5082699;28;20180;-73
2021/01/09 10:51:34;;;;;;;9.17;4.50;;;;;;;;;;5089988;28;20587;-73
2021/01/09 10:54:01;;;;;;;7.97;4.53;;;;;;;;;;5085030;28;20176;-74
2021/01/09 10:56:27;;;;;;;9.03;4.13;;;;;;;;;;5091281;28;20176;-74
2021/01/09 10:58:52;;;;;;;10.10;4.33;;;;;;;;;;5080440;28;20933;-73
2021/01/09 11:01:20;;;;;;;8.67;4.10;;;;;;;;;;5088784;28;20191;-73
2021/01/09 11:03:45;;;;;;;8.27;4.27;;;;;;;;;;5076740;28;20191;-73
2021/01/09 11:06:19;;;;;;;14.57;4.77;;;;;;;;;;5061447;28;20208;-72
2021/01/09 11:08:45;;;;;;;7.80;4.30;;;;;;;;;;5076741;28;20187;-72
2021/01/09 11:11:10;;;;;;;8.50;4.50;;;;;;;;;;5088611;28;20187;-73
2021/01/09 11:13:35;;;;;;;9.17;3.87;;;;;;;;;;5071445;28;20187;-73
2021/01/09 11:16:01;;;;;;;10.23;3.90;;;;;;;;;;5079872;28;20199;-72
2021/01/09 11:18:26;;;;;;;9.23;3.80;;;;;;;;;;5087845;28;20489;-72
2021/01/09 11:20:52;;;;;;;4.77;2.83;;;;;;;;;;5072585;28;20195;-73
2021/01/09 11:23:19;;;;;;;5.83;2.87;;;;;;;;;;5086986;28;20187;-73
2021/01/09 11:25:45;;;;;;;9.17;3.37;;;;;;;;;;5060615;28;20592;-72
2021/01/09 11:28:12;;;;;;;7.67;3.40;;;;;;;;;;5087034;28;20565;-73
2021/01/09 11:30:38;;;;;;;7.13;3.43;;;;;;;;;;5078634;28;20234;-73
2021/01/09 11:33:04;;;;;;;6.03;3.03;;;;;;;;;;5081215;28;20269;-73
2021/01/09 11:35:30;;;;;;;8.17;3.40;;;;;;;;;;5074592;28;20207;-73
2021/01/09 11:37:57;;;;;;;10.27;3.67;;;;;;;;;;5066622;28;20310;-72
2021/01/09 11:40:23;;;;;;;7.10;3.20;;;;;;;;;;5075948;28;20184;-73
2021/01/09 11:42:48;;;;;;;5.73;3.10;;;;;;;;;;5083005;28;20228;-72
2021/01/09 11:45:15;;;;;;;9.10;2.77;;;;;;;;;;5073731;28;20636;-74
2021/01/09 11:47:41;;;;;;;6.43;3.17;;;;;;;;;;5074986;28;20536;-74
2021/01/09 11:50:07;;;;;;;8.40;2.40;;;;;;;;;;5087542;28;20187;-72
2021/01/09 11:52:32;;;;;;;6.33;3.10;;;;;;;;;;5073251;28;20643;-72
2021/01/09 11:54:58;;;;;;;6.47;2.60;;;;;;;;;;5062647;28;20275;-73
2021/01/09 11:57:25;;;;;;;9.27;3.00;;;;;;;;;;5079085;28;20321;-73
2021/01/09 11:59:50;;;;;;;6.90;2.40;;;;;;;;;;5088276;28;20184;-74
2021/01/09 12:02:15;;;;;;;5.77;2.27;;;;;;;;;;5077091;28;20188;-73
2021/01/09 12:04:41;;;;;;;8.40;2.37;;;;;;;;;;5087587;28;20242;-72
2021/01/09 12:07:06;;;;;;;6.97;2.33;;;;;;;;;;5079378;28;20279;-73
2021/01/09 12:09:31;;;;;;;6.10;2.63;;;;;;;;;;5083707;28;20190;-73
2021/01/09 12:11:57;;;;;;;8.43;3.63;;;;;;;;;;5074523;28;20192;-74
2021/01/09 12:14:22;;;;;;;11.00;3.17;;;;;;;;;;5086352;28;20184;-71
2021/01/09 12:16:48;;;;;;;4.33;2.50;;;;;;;;;;5086980;28;20184;-72
2021/01/09 12:19:13;;;;;;;7.23;2.57;;;;;;;;;;5077526;28;20287;-72
2021/01/09 12:21:39;;;;;;;6.57;3.03;;;;;;;;;;5087003;28;20188;-72
2021/01/09 12:24:04;;;;;;;9.40;2.87;;;;;;;;;;5078623;28;20198;-72
2021/01/09 12:26:30;;;;;;;5.97;2.60;;;;;;;;;;5089070;28;20230;-72
2021/01/09 12:28:55;;;;;;;9.37;2.97;;;;;;;;;;5076366;28;20180;-72
2021/01/09 12:31:34;;;;;;;6.77;2.73;;;;;;;;;;5085820;28;20215;-74
2021/01/09 12:34:01;;;;;;;4.37;2.77;;;;;;;;;;5075488;28;20184;-72
2021/01/09 12:36:26;;;;;;;7.63;2.77;;;;;;;;;;5083666;28;20186;-73
2021/01/09 12:38:52;;;;;;;8.23;3.27;;;;;;;;;;5057291;28;20195;-73
2021/01/09 12:41:18;;;;;;;5.40;3.23;;;;;;;;;;5086352;28;20220;-74
2021/01/09 12:43:44;;;;;;;6.83;3.20;;;;;;;;;;5070467;28;20815;-73
2021/01/09 12:46:09;;;;;;;9.87;2.97;;;;;;;;;;5086161;28;20192;-73
2021/01/09 12:48:34;;;;;;;6.07;2.70;;;;;;;;;;5059417;28;20180;-73
2021/01/09 12:51:00;;;;;;;6.00;2.90;;;;;;;;;;5085502;28;20188;-72
2021/01/09 12:53:25;;;;;;;7.30;2.50;;;;;;;;;;5087629;28;20674;-72
2021/01/09 12:55:50;;;;;;;7.63;2.90;;;;;;;;;;5060060;28;20256;-71
2021/01/09 12:58:15;;;;;;;6.20;2.77;;;;;;;;;;5068699;28;20204;-72
2021/01/09 13:00:41;;;;;;;8.43;3.30;;;;;;;;;;5074977;28;20228;-73
2021/01/09 13:03:06;;;;;;;8.30;2.80;;;;;;;;;;5086601;28;20188;-73
2021/01/09 13:05:31;;;;;;;7.63;2.57;;;;;;;;;;5056310;28;20211;-73
2021/01/09 13:07:57;;;;;;;7.10;2.63;;;;;;;;;;4377138;28;10000849;-73
2021/01/09 13:10:22;;;;;;;8.10;2.20;;;;;;;;;;5070484;28;20593;-73
2021/01/09 13:12:47;;;;;;;6.27;2.27;;;;;;;;;;5081651;28;20206;-73
2021/01/09 13:15:14;;;;;;;6.63;2.43;;;;;;;;;;5072436;28;20219;-73
2021/01/09 13:17:39;;;;;;;6.30;2.63;;;;;;;;;;5080822;28;20616;-73
2021/01/09 13:20:05;;;;;;;6.27;2.50;;;;;;;;;;5054223;28;20184;-73
2021/01/09 13:22:31;;;;;;;8.47;2.80;;;;;;;;;;5079244;28;20203;-73
2021/01/09 13:24:56;;;;;;;29.00;20.73;;;;;;;;;;5080979;28;20187;-73
2021/01/09 13:27:21;;;;;;;9.13;5.57;;;;;;;;;;5073305;28;20192;-73
2021/01/09 13:29:46;;;;;;;8.57;3.10;;;;;;;;;;5055921;28;20628;-72
2021/01/09 13:32:12;;;;;;;7.30;2.47;;;;;;;;;;5072855;28;20184;-72
2021/01/09 13:34:37;;;;;;;12.77;3.77;;;;;;;;;;5081985;28;20535;-72
2021/01/09 13:37:07;;;;;;;6.20;2.63;;;;;;;;;;5072837;28;20219;-72
2021/01/09 13:39:33;;;;;;;7.40;2.43;;;;;;;;;;5078699;28;20200;-72
2021/01/09 13:41:59;;;;;;;8.77;2.70;;;;;;;;;;5059189;28;20256;-72
2021/01/09 13:44:24;;;;;;;7.07;2.90;;;;;;;;;;5084222;28;20191;-72
2021/01/09 13:46:50;;;;;;;6.63;2.33;;;;;;;;;;5070292;28;20241;-73
2021/01/09 13:49:15;;;;;;;7.80;2.90;;;;;;;;;;5083392;28;20187;-73
2021/01/09 13:51:41;;;;;;;10.37;3.60;;;;;;;;;;5079360;28;20180;-72
2021/01/09 13:54:08;;;;;;;10.40;3.67;;;;;;;;;;5079355;28;20263;-72
2021/01/09 13:56:44;;;;;;;12.77;3.90;;;;;;;;;;5086464;28;20187;-72
2021/01/09 13:59:15;;;;;;;10.73;3.23;;;;;;;;;;5074255;28;20663;-72
2021/01/09 14:01:42;;;;;;;7.07;2.93;;;;;;;;;;5083282;28;20241;-72
2021/01/09 14:04:07;;;;;;;9.10;2.90;;;;;;;;;;5059276;28;20271;-72
2021/01/09 14:06:33;;;;;;;10.10;3.03;;;;;;;;;;5086343;28;20282;-72
2021/01/09 14:08:59;;;;;;;8.43;2.50;;;;;;;;;;5076914;28;20270;-72
2021/01/09 14:11:26;;;;;;;8.27;2.23;;;;;;;;;;5082112;28;20222;-72
2021/01/09 14:13:53;;;;;;;6.53;2.00;;;;;;;;;;5075380;28;20184;-72
2021/01/09 14:16:24;;;;;;;5.47;2.33;;;;;;;;;;5085978;28;20537;-72
2021/01/09 14:18:49;;;;;;;9.43;2.30;;;;;;;;;;5076956;28;20204;-72
2021/01/09 14:21:17;;;;;;;8.57;2.07;;;;;;;;;;5086051;28;20180;-72
2021/01/09 14:23:43;;;;;;;10.67;2.33;;;;;;;;;;5072733;28;20203;-72
2021/01/09 14:26:08;;;;;;;7.50;2.13;;;;;;;;;;5084009;28;20219;-72